sensor_id;sensor_type;location;lat;lon;timestamp;P1;durP1;ratioP1;P2;durP2;ratioP2
36253;SDS011;22291;52.250;21.228;2023-12-22T00:00:02;7.33;;;2.10;;
36253;SDS011;22291;52.250;21.228;2023-12-22T00:02:32;5.85;;;1.87;;
36253;SDS011;22291;52.250;21.228;2023-12-22T00:05:01;11.45;;;4.50;;
36253;SDS011;22291;52.250;21.228;2023-12-22T00:07:29;18.23;;;8.20;;
36253;SDS011;22291;52.250;21.228;2023-12-22T00:09:58;6.95;;;3.62;;
36253;SDS011;22291;52.250;21.228;2023-12-22T00:12:27;9.63;;;2.90;;
36253;SDS011;22291;52.250;21.228;2023-12-22T00:14:54;9.53;;;4.03;;
36253;SDS011;22291;52.250;21.228;2023-12-22T00:17:23;15.38;;;7.35;;
36253;SDS011;22291;52.250;21.228;2023-12-22T00:19:50;6.05;;;3.22;;
36253;SDS011;22291;52.250;21.228;2023-12-22T00:22:17;9.35;;;3.55;;
36253;SDS011;22291;52.250;21.228;2023-12-22T00:24:44;10.00;;;3.72;;
36253;SDS011;22291;52.250;21.228;2023-12-22T00:27:13;10.28;;;3.15;;
36253;SDS011;22291;52.250;21.228;2023-12-22T00:29:41;11.65;;;5.35;;
36253;SDS011;22291;52.250;21.228;2023-12-22T00:32:08;18.10;;;8.28;;
36253;SDS011;22291;52.250;21.228;2023-12-22T00:34:36;15.35;;;5.03;;
36253;SDS011;22291;52.250;21.228;2023-12-22T00:37:04;7.83;;;3.12;;
36253;SDS011;22291;52.250;21.228;2023-12-22T00:39:32;11.00;;;3.70;;
36253;SDS011;22291;52.250;21.228;2023-12-22T00:42:02;13.00;;;3.60;;
36253;SDS011;22291;52.250;21.228;2023-12-22T00:44:31;12.18;;;3.22;;
36253;SDS011;22291;52.250;21.228;2023-12-22T00:46:59;16.27;;;4.83;;
36253;SDS011;22291;52.250;21.228;2023-12-22T00:49:27;14.45;;;4.10;;
36253;SDS011;22291;52.250;21.228;2023-12-22T00:51:54;12.65;;;2.92;;
36253;SDS011;22291;52.250;21.228;2023-12-22T00:54:24;12.20;;;3.20;;
36253;SDS011;22291;52.250;21.228;2023-12-22T00:56:52;8.20;;;3.80;;
36253;SDS011;22291;52.250;21.228;2023-12-22T00:59:20;17.87;;;4.53;;
36253;SDS011;22291;52.250;21.228;2023-12-22T01:01:48;11.65;;;3.30;;
36253;SDS011;22291;52.250;21.228;2023-12-22T01:04:16;11.38;;;2.90;;
36253;SDS011;22291;52.250;21.228;2023-12-22T01:06:44;15.78;;;2.92;;
36253;SDS011;22291;52.250;21.228;2023-12-22T01:09:11;13.15;;;3.00;;
36253;SDS011;22291;52.250;21.228;2023-12-22T01:11:37;12.50;;;2.60;;
36253;SDS011;22291;52.250;21.228;2023-12-22T01:14:07;14.13;;;4.53;;
36253;SDS011;22291;52.250;21.228;2023-12-22T01:16:35;18.35;;;3.52;;
36253;SDS011;22291;52.250;21.228;2023-12-22T01:19:02;13.50;;;3.30;;
36253;SDS011;22291;52.250;21.228;2023-12-22T01:21:30;10.40;;;3.55;;
36253;SDS011;22291;52.250;21.228;2023-12-22T01:23:58;14.38;;;2.87;;
36253;SDS011;22291;52.250;21.228;2023-12-22T01:26:26;12.05;;;3.35;;
36253;SDS011;22291;52.250;21.228;2023-12-22T01:28:55;13.65;;;2.87;;
36253;SDS011;22291;52.250;21.228;2023-12-22T01:31:23;12.58;;;3.70;;
36253;SDS011;22291;52.250;21.228;2023-12-22T01:33:52;14.63;;;3.30;;
36253;SDS011;22291;52.250;21.228;2023-12-22T01:36:21;10.05;;;2.42;;
36253;SDS011;22291;52.250;21.228;2023-12-22T01:38:49;12.37;;;2.72;;
36253;SDS011;22291;52.250;21.228;2023-12-22T01:41:16;11.70;;;2.72;;
36253;SDS011;22291;52.250;21.228;2023-12-22T01:43:44;9.83;;;3.33;;
36253;SDS011;22291;52.250;21.228;2023-12-22T01:46:12;16.55;;;4.12;;
36253;SDS011;22291;52.250;21.228;2023-12-22T01:48:40;12.80;;;2.87;;
36253;SDS011;22291;52.250;21.228;2023-12-22T01:51:07;15.85;;;3.37;;
36253;SDS011;22291;52.250;21.228;2023-12-22T01:53:35;16.15;;;3.65;;
36253;SDS011;22291;52.250;21.228;2023-12-22T01:56:03;8.93;;;2.53;;
36253;SDS011;22291;52.250;21.228;2023-12-22T02:01:03;16.77;;;2.85;;
36253;SDS011;22291;52.250;21.228;2023-12-22T02:03:31;9.05;;;2.52;;
36253;SDS011;22291;52.250;21.228;2023-12-22T02:05:58;9.45;;;2.80;;
36253;SDS011;22291;52.250;21.228;2023-12-22T02:08:27;12.10;;;3.30;;
36253;SDS011;22291;52.250;21.228;2023-12-22T02:10:58;9.73;;;3.33;;
36253;SDS011;22291;52.250;21.228;2023-12-22T02:13:25;15.70;;;3.25;;
36253;SDS011;22291;52.250;21.228;2023-12-22T02:16:03;12.10;;;3.55;;
36253;SDS011;22291;52.250;21.228;2023-12-22T02:18:34;16.12;;;4.83;;
36253;SDS011;22291;52.250;21.228;2023-12-22T02:21:06;17.90;;;3.98;;
36253;SDS011;22291;52.250;21.228;2023-12-22T02:23:35;7.17;;;2.80;;
36253;SDS011;22291;52.250;21.228;2023-12-22T02:26:06;11.33;;;3.30;;
36253;SDS011;22291;52.250;21.228;2023-12-22T02:28:56;14.58;;;4.05;;
36253;SDS011;22291;52.250;21.228;2023-12-22T02:31:36;20.68;;;4.08;;
36253;SDS011;22291;52.250;21.228;2023-12-22T02:34:08;18.80;;;4.08;;
36253;SDS011;22291;52.250;21.228;2023-12-22T02:36:43;15.18;;;3.02;;
36253;SDS011;22291;52.250;21.228;2023-12-22T02:39:12;16.60;;;3.87;;
36253;SDS011;22291;52.250;21.228;2023-12-22T02:41:41;10.70;;;3.02;;
36253;SDS011;22291;52.250;21.228;2023-12-22T02:44:10;12.37;;;3.67;;
36253;SDS011;22291;52.250;21.228;2023-12-22T02:46:38;12.07;;;2.87;;
36253;SDS011;22291;52.250;21.228;2023-12-22T02:49:08;13.03;;;3.15;;
36253;SDS011;22291;52.250;21.228;2023-12-22T02:54:07;10.95;;;3.08;;
36253;SDS011;22291;52.250;21.228;2023-12-22T02:56:34;15.78;;;3.42;;
36253;SDS011;22291;52.250;21.228;2023-12-22T02:59:03;16.60;;;3.62;;
36253;SDS011;22291;52.250;21.228;2023-12-22T03:01:31;12.05;;;3.65;;
36253;SDS011;22291;52.250;21.228;2023-12-22T03:03:59;16.65;;;3.70;;
36253;SDS011;22291;52.250;21.228;2023-12-22T03:06:27;11.55;;;3.27;;
36253;SDS011;22291;52.250;21.228;2023-12-22T03:08:56;13.30;;;3.85;;
36253;SDS011;22291;52.250;21.228;2023-12-22T03:11:24;12.78;;;3.22;;
36253;SDS011;22291;52.250;21.228;2023-12-22T03:13:52;17.02;;;3.80;;
36253;SDS011;22291;52.250;21.228;2023-12-22T03:16:19;18.50;;;3.27;;
36253;SDS011;22291;52.250;21.228;2023-12-22T03:18:48;12.00;;;3.00;;
36253;SDS011;22291;52.250;21.228;2023-12-22T03:21:17;11.80;;;4.33;;
36253;SDS011;22291;52.250;21.228;2023-12-22T03:23:46;13.40;;;3.27;;
36253;SDS011;22291;52.250;21.228;2023-12-22T03:26:14;16.82;;;3.08;;
36253;SDS011;22291;52.250;21.228;2023-12-22T03:28:42;12.28;;;3.62;;
36253;SDS011;22291;52.250;21.228;2023-12-22T03:31:11;13.30;;;4.72;;
36253;SDS011;22291;52.250;21.228;2023-12-22T03:33:39;16.23;;;4.35;;
36253;SDS011;22291;52.250;21.228;2023-12-22T03:36:08;18.00;;;3.58;;
36253;SDS011;22291;52.250;21.228;2023-12-22T03:38:36;13.72;;;4.37;;
36253;SDS011;22291;52.250;21.228;2023-12-22T03:41:04;12.03;;;2.83;;
36253;SDS011;22291;52.250;21.228;2023-12-22T03:43:31;15.13;;;3.47;;
36253;SDS011;22291;52.250;21.228;2023-12-22T03:46:01;11.35;;;3.58;;
36253;SDS011;22291;52.250;21.228;2023-12-22T03:48:29;12.88;;;3.95;;
36253;SDS011;22291;52.250;21.228;2023-12-22T03:50:57;21.33;;;3.27;;
36253;SDS011;22291;52.250;21.228;2023-12-22T03:53:25;14.60;;;3.72;;
36253;SDS011;22291;52.250;21.228;2023-12-22T03:55:54;16.10;;;3.52;;
36253;SDS011;22291;52.250;21.228;2023-12-22T03:58:24;20.37;;;3.20;;
36253;SDS011;22291;52.250;21.228;2023-12-22T04:00:53;18.75;;;3.92;;
36253;SDS011;22291;52.250;21.228;2023-12-22T04:03:21;17.10;;;4.30;;
36253;SDS011;22291;52.250;21.228;2023-12-22T04:05:50;11.50;;;3.15;;
36253;SDS011;22291;52.250;21.228;2023-12-22T04:08:19;18.05;;;3.83;;
36253;SDS011;22291;52.250;21.228;2023-12-22T04:10:46;11.00;;;3.12;;
36253;SDS011;22291;52.250;21.228;2023-12-22T04:13:15;13.80;;;3.85;;
36253;SDS011;22291;52.250;21.228;2023-12-22T04:15:42;11.73;;;3.22;;
36253;SDS011;22291;52.250;21.228;2023-12-22T04:18:12;14.55;;;3.58;;
36253;SDS011;22291;52.250;21.228;2023-12-22T04:20:41;11.85;;;3.22;;
36253;SDS011;22291;52.250;21.228;2023-12-22T04:23:10;12.85;;;4.12;;
36253;SDS011;22291;52.250;21.228;2023-12-22T04:25:39;13.53;;;3.50;;
36253;SDS011;22291;52.250;21.228;2023-12-22T04:28:08;12.33;;;3.47;;
36253;SDS011;22291;52.250;21.228;2023-12-22T04:30:36;12.20;;;3.85;;
36253;SDS011;22291;52.250;21.228;2023-12-22T04:33:04;18.37;;;3.92;;
36253;SDS011;22291;52.250;21.228;2023-12-22T04:35:33;19.92;;;3.70;;
36253;SDS011;22291;52.250;21.228;2023-12-22T04:38:00;12.53;;;3.30;;
36253;SDS011;22291;52.250;21.228;2023-12-22T04:40:28;10.90;;;3.35;;
36253;SDS011;22291;52.250;21.228;2023-12-22T04:42:55;9.55;;;3.00;;
36253;SDS011;22291;52.250;21.228;2023-12-22T04:45:23;15.08;;;4.30;;
36253;SDS011;22291;52.250;21.228;2023-12-22T04:47:51;14.38;;;3.70;;
36253;SDS011;22291;52.250;21.228;2023-12-22T04:50:20;10.58;;;3.42;;
36253;SDS011;22291;52.250;21.228;2023-12-22T04:52:48;13.55;;;3.33;;
36253;SDS011;22291;52.250;21.228;2023-12-22T04:55:17;14.70;;;3.40;;
36253;SDS011;22291;52.250;21.228;2023-12-22T04:57:43;16.90;;;3.45;;
36253;SDS011;22291;52.250;21.228;2023-12-22T05:00:13;14.60;;;3.08;;
36253;SDS011;22291;52.250;21.228;2023-12-22T05:02:42;11.35;;;3.17;;
36253;SDS011;22291;52.250;21.228;2023-12-22T05:05:09;19.57;;;4.12;;
36253;SDS011;22291;52.250;21.228;2023-12-22T05:07:38;17.35;;;3.47;;
36253;SDS011;22291;52.250;21.228;2023-12-22T05:10:07;14.13;;;3.12;;
36253;SDS011;22291;52.250;21.228;2023-12-22T05:12:34;12.80;;;3.33;;
36253;SDS011;22291;52.250;21.228;2023-12-22T05:15:04;9.60;;;2.75;;
36253;SDS011;22291;52.250;21.228;2023-12-22T05:17:32;17.60;;;3.77;;
36253;SDS011;22291;52.250;21.228;2023-12-22T05:20:00;17.90;;;5.33;;
36253;SDS011;22291;52.250;21.228;2023-12-22T05:22:29;15.78;;;3.10;;
36253;SDS011;22291;52.250;21.228;2023-12-22T05:24:57;15.20;;;3.98;;
36253;SDS011;22291;52.250;21.228;2023-12-22T05:27:26;15.32;;;3.83;;
36253;SDS011;22291;52.250;21.228;2023-12-22T05:29:54;13.85;;;3.22;;
36253;SDS011;22291;52.250;21.228;2023-12-22T05:34:51;16.55;;;3.47;;
36253;SDS011;22291;52.250;21.228;2023-12-22T05:37:19;12.73;;;3.05;;
36253;SDS011;22291;52.250;21.228;2023-12-22T05:39:46;11.33;;;3.25;;
36253;SDS011;22291;52.250;21.228;2023-12-22T05:42:14;16.15;;;3.60;;
36253;SDS011;22291;52.250;21.228;2023-12-22T05:44:42;16.37;;;3.08;;
36253;SDS011;22291;52.250;21.228;2023-12-22T05:47:13;11.25;;;3.85;;
36253;SDS011;22291;52.250;21.228;2023-12-22T05:49:40;15.60;;;2.87;;
36253;SDS011;22291;52.250;21.228;2023-12-22T05:52:09;11.90;;;3.20;;
36253;SDS011;22291;52.250;21.228;2023-12-22T05:54:38;11.30;;;2.80;;
36253;SDS011;22291;52.250;21.228;2023-12-22T05:57:05;15.35;;;3.30;;
36253;SDS011;22291;52.250;21.228;2023-12-22T05:59:33;12.95;;;2.95;;
36253;SDS011;22291;52.250;21.228;2023-12-22T06:02:00;12.10;;;3.17;;
36253;SDS011;22291;52.250;21.228;2023-12-22T06:04:30;14.93;;;3.10;;
36253;SDS011;22291;52.250;21.228;2023-12-22T06:06:58;11.60;;;2.90;;
36253;SDS011;22291;52.250;21.228;2023-12-22T06:09:26;20.35;;;3.98;;
36253;SDS011;22291;52.250;21.228;2023-12-22T06:11:55;20.55;;;3.72;;
36253;SDS011;22291;52.250;21.228;2023-12-22T06:14:24;17.00;;;3.27;;
36253;SDS011;22291;52.250;21.228;2023-12-22T06:16:51;18.25;;;3.55;;
36253;SDS011;22291;52.250;21.228;2023-12-22T06:19:23;17.55;;;3.27;;
36253;SDS011;22291;52.250;21.228;2023-12-22T06:21:52;19.65;;;3.85;;
36253;SDS011;22291;52.250;21.228;2023-12-22T06:24:20;19.37;;;3.37;;
36253;SDS011;22291;52.250;21.228;2023-12-22T06:26:48;19.55;;;3.52;;
36253;SDS011;22291;52.250;21.228;2023-12-22T06:29:17;14.58;;;3.30;;
36253;SDS011;22291;52.250;21.228;2023-12-22T06:31:44;17.50;;;3.55;;
36253;SDS011;22291;52.250;21.228;2023-12-22T06:34:13;13.15;;;3.00;;
36253;SDS011;22291;52.250;21.228;2023-12-22T06:36:40;15.88;;;3.40;;
36253;SDS011;22291;52.250;21.228;2023-12-22T06:39:08;14.05;;;3.50;;
36253;SDS011;22291;52.250;21.228;2023-12-22T06:41:36;17.07;;;3.00;;
36253;SDS011;22291;52.250;21.228;2023-12-22T06:44:05;23.90;;;5.05;;
36253;SDS011;22291;52.250;21.228;2023-12-22T06:46:34;13.80;;;3.00;;
36253;SDS011;22291;52.250;21.228;2023-12-22T06:49:01;8.60;;;2.60;;
36253;SDS011;22291;52.250;21.228;2023-12-22T06:51:31;19.07;;;3.50;;
36253;SDS011;22291;52.250;21.228;2023-12-22T06:54:02;19.17;;;3.45;;
36253;SDS011;22291;52.250;21.228;2023-12-22T06:58:59;17.80;;;3.55;;
36253;SDS011;22291;52.250;21.228;2023-12-22T07:01:29;18.35;;;4.70;;
36253;SDS011;22291;52.250;21.228;2023-12-22T07:03:58;11.63;;;2.85;;
36253;SDS011;22291;52.250;21.228;2023-12-22T07:06:32;13.95;;;2.58;;
36253;SDS011;22291;52.250;21.228;2023-12-22T07:11:47;12.18;;;2.10;;
36253;SDS011;22291;52.250;21.228;2023-12-22T07:14:18;12.53;;;2.20;;
36253;SDS011;22291;52.250;21.228;2023-12-22T07:16:46;14.90;;;2.50;;
36253;SDS011;22291;52.250;21.228;2023-12-22T07:19:12;9.40;;;2.72;;
36253;SDS011;22291;52.250;21.228;2023-12-22T07:21:43;14.75;;;2.80;;
36253;SDS011;22291;52.250;21.228;2023-12-22T07:24:11;13.58;;;2.83;;
36253;SDS011;22291;52.250;21.228;2023-12-22T07:26:39;18.37;;;2.90;;
36253;SDS011;22291;52.250;21.228;2023-12-22T07:29:07;11.83;;;2.85;;
36253;SDS011;22291;52.250;21.228;2023-12-22T07:31:36;16.60;;;2.77;;
36253;SDS011;22291;52.250;21.228;2023-12-22T07:34:03;18.50;;;3.42;;
36253;SDS011;22291;52.250;21.228;2023-12-22T07:36:33;12.28;;;2.62;;
36253;SDS011;22291;52.250;21.228;2023-12-22T07:39:00;16.00;;;3.10;;
36253;SDS011;22291;52.250;21.228;2023-12-22T07:41:29;15.75;;;2.87;;
36253;SDS011;22291;52.250;21.228;2023-12-22T07:43:56;15.45;;;2.67;;
36253;SDS011;22291;52.250;21.228;2023-12-22T07:46:24;15.43;;;2.65;;
36253;SDS011;22291;52.250;21.228;2023-12-22T07:48:52;15.13;;;3.10;;
36253;SDS011;22291;52.250;21.228;2023-12-22T07:51:18;13.32;;;2.55;;
36253;SDS011;22291;52.250;21.228;2023-12-22T07:53:47;21.12;;;3.45;;
36253;SDS011;22291;52.250;21.228;2023-12-22T07:56:15;13.13;;;2.85;;
36253;SDS011;22291;52.250;21.228;2023-12-22T07:58:43;12.58;;;2.37;;
36253;SDS011;22291;52.250;21.228;2023-12-22T08:01:11;14.90;;;3.17;;
36253;SDS011;22291;52.250;21.228;2023-12-22T08:03:41;11.25;;;2.92;;
36253;SDS011;22291;52.250;21.228;2023-12-22T08:06:10;12.80;;;2.37;;
36253;SDS011;22291;52.250;21.228;2023-12-22T08:08:40;15.43;;;2.47;;
36253;SDS011;22291;52.250;21.228;2023-12-22T08:11:07;9.68;;;2.15;;
36253;SDS011;22291;52.250;21.228;2023-12-22T08:13:37;8.38;;;2.22;;
36253;SDS011;22291;52.250;21.228;2023-12-22T08:16:05;14.78;;;2.75;;
36253;SDS011;22291;52.250;21.228;2023-12-22T08:18:32;8.13;;;2.27;;
36253;SDS011;22291;52.250;21.228;2023-12-22T08:21:02;14.10;;;2.45;;
36253;SDS011;22291;52.250;21.228;2023-12-22T08:23:31;10.63;;;4.45;;
36253;SDS011;22291;52.250;21.228;2023-12-22T08:25:57;12.75;;;2.85;;
36253;SDS011;22291;52.250;21.228;2023-12-22T08:28:25;14.75;;;3.58;;
36253;SDS011;22291;52.250;21.228;2023-12-22T08:30:53;16.85;;;3.65;;
36253;SDS011;22291;52.250;21.228;2023-12-22T08:33:19;15.15;;;2.77;;
36253;SDS011;22291;52.250;21.228;2023-12-22T08:35:48;14.80;;;2.27;;
36253;SDS011;22291;52.250;21.228;2023-12-22T08:38:16;10.28;;;2.90;;
36253;SDS011;22291;52.250;21.228;2023-12-22T08:40:45;11.68;;;2.35;;
36253;SDS011;22291;52.250;21.228;2023-12-22T08:43:14;15.48;;;2.80;;
36253;SDS011;22291;52.250;21.228;2023-12-22T08:45:43;14.63;;;3.08;;
36253;SDS011;22291;52.250;21.228;2023-12-22T08:48:10;13.10;;;2.27;;
36253;SDS011;22291;52.250;21.228;2023-12-22T08:50:38;14.58;;;2.85;;
36253;SDS011;22291;52.250;21.228;2023-12-22T08:53:04;13.93;;;2.80;;
36253;SDS011;22291;52.250;21.228;2023-12-22T08:55:32;12.18;;;2.80;;
36253;SDS011;22291;52.250;21.228;2023-12-22T08:57:59;15.32;;;2.58;;
36253;SDS011;22291;52.250;21.228;2023-12-22T09:00:25;12.13;;;2.35;;
36253;SDS011;22291;52.250;21.228;2023-12-22T09:02:55;12.68;;;3.08;;
36253;SDS011;22291;52.250;21.228;2023-12-22T09:05:23;16.55;;;3.12;;
36253;SDS011;22291;52.250;21.228;2023-12-22T09:07:51;10.28;;;2.55;;
36253;SDS011;22291;52.250;21.228;2023-12-22T09:10:19;12.63;;;2.60;;
36253;SDS011;22291;52.250;21.228;2023-12-22T09:12:48;11.90;;;3.08;;
36253;SDS011;22291;52.250;21.228;2023-12-22T09:15:16;11.77;;;2.20;;
36253;SDS011;22291;52.250;21.228;2023-12-22T09:17:45;13.22;;;2.83;;
36253;SDS011;22291;52.250;21.228;2023-12-22T09:20:14;9.60;;;2.47;;
36253;SDS011;22291;52.250;21.228;2023-12-22T09:22:41;13.60;;;2.62;;
36253;SDS011;22291;52.250;21.228;2023-12-22T09:25:09;11.68;;;2.65;;
36253;SDS011;22291;52.250;21.228;2023-12-22T09:27:36;9.88;;;2.52;;
36253;SDS011;22291;52.250;21.228;2023-12-22T09:30:05;17.77;;;2.85;;
36253;SDS011;22291;52.250;21.228;2023-12-22T09:32:33;10.53;;;3.27;;
36253;SDS011;22291;52.250;21.228;2023-12-22T09:35:03;14.78;;;2.75;;
36253;SDS011;22291;52.250;21.228;2023-12-22T09:40:01;15.80;;;2.62;;
36253;SDS011;22291;52.250;21.228;2023-12-22T09:42:29;12.23;;;2.70;;
36253;SDS011;22291;52.250;21.228;2023-12-22T09:44:58;13.32;;;2.83;;
36253;SDS011;22291;52.250;21.228;2023-12-22T09:47:30;14.35;;;3.15;;
36253;SDS011;22291;52.250;21.228;2023-12-22T09:50:00;10.85;;;2.15;;
36253;SDS011;22291;52.250;21.228;2023-12-22T09:52:29;16.10;;;2.75;;
36253;SDS011;22291;52.250;21.228;2023-12-22T09:55:00;11.55;;;2.42;;
36253;SDS011;22291;52.250;21.228;2023-12-22T09:57:31;14.00;;;2.58;;
36253;SDS011;22291;52.250;21.228;2023-12-22T10:00:00;11.18;;;2.60;;
36253;SDS011;22291;52.250;21.228;2023-12-22T10:02:32;9.93;;;2.20;;
36253;SDS011;22291;52.250;21.228;2023-12-22T10:05:03;12.45;;;2.40;;
36253;SDS011;22291;52.250;21.228;2023-12-22T10:07:31;12.45;;;2.42;;
36253;SDS011;22291;52.250;21.228;2023-12-22T10:10:02;8.58;;;2.00;;
36253;SDS011;22291;52.250;21.228;2023-12-22T10:12:33;13.25;;;2.62;;
36253;SDS011;22291;52.250;21.228;2023-12-22T10:15:05;8.93;;;1.85;;
36253;SDS011;22291;52.250;21.228;2023-12-22T10:17:52;10.58;;;2.75;;
36253;SDS011;22291;52.250;21.228;2023-12-22T10:20:21;6.25;;;2.10;;
36253;SDS011;22291;52.250;21.228;2023-12-22T10:22:50;7.80;;;2.55;;
36253;SDS011;22291;52.250;21.228;2023-12-22T10:25:24;8.98;;;1.72;;
36253;SDS011;22291;52.250;21.228;2023-12-22T10:27:50;10.75;;;2.22;;
36253;SDS011;22291;52.250;21.228;2023-12-22T10:30:19;7.70;;;2.08;;
36253;SDS011;22291;52.250;21.228;2023-12-22T10:32:47;7.03;;;1.67;;
36253;SDS011;22291;52.250;21.228;2023-12-22T10:35:20;8.88;;;2.15;;
36253;SDS011;22291;52.250;21.228;2023-12-22T10:37:49;6.60;;;1.17;;
36253;SDS011;22291;52.250;21.228;2023-12-22T10:40:19;4.90;;;1.27;;
36253;SDS011;22291;52.250;21.228;2023-12-22T10:42:48;3.70;;;1.50;;
36253;SDS011;22291;52.250;21.228;2023-12-22T10:50:20;6.28;;;1.27;;
36253;SDS011;22291;52.250;21.228;2023-12-22T10:52:50;7.12;;;1.20;;
36253;SDS011;22291;52.250;21.228;2023-12-22T10:55:20;4.17;;;0.95;;
36253;SDS011;22291;52.250;21.228;2023-12-22T10:57:48;1.85;;;0.80;;
36253;SDS011;22291;52.250;21.228;2023-12-22T11:00:17;1.53;;;0.70;;
36253;SDS011;22291;52.250;21.228;2023-12-22T11:02:48;0.95;;;0.60;;
36253;SDS011;22291;52.250;21.228;2023-12-22T11:05:17;2.30;;;0.90;;
36253;SDS011;22291;52.250;21.228;2023-12-22T11:07:49;1.87;;;0.80;;
36253;SDS011;22291;52.250;21.228;2023-12-22T11:10:21;3.58;;;0.93;;
36253;SDS011;22291;52.250;21.228;2023-12-22T11:12:50;3.83;;;1.12;;
36253;SDS011;22291;52.250;21.228;2023-12-22T11:15:21;3.02;;;1.00;;
36253;SDS011;22291;52.250;21.228;2023-12-22T11:17:53;5.78;;;1.32;;
36253;SDS011;22291;52.250;21.228;2023-12-22T11:20:24;4.08;;;1.25;;
36253;SDS011;22291;52.250;21.228;2023-12-22T11:22:54;4.03;;;1.25;;
36253;SDS011;22291;52.250;21.228;2023-12-22T11:25:25;5.45;;;1.50;;
36253;SDS011;22291;52.250;21.228;2023-12-22T11:27:56;5.42;;;1.50;;
36253;SDS011;22291;52.250;21.228;2023-12-22T11:30:26;5.17;;;1.65;;
36253;SDS011;22291;52.250;21.228;2023-12-22T11:32:56;5.90;;;1.50;;
36253;SDS011;22291;52.250;21.228;2023-12-22T11:35:25;6.40;;;1.77;;
36253;SDS011;22291;52.250;21.228;2023-12-22T11:37:55;6.92;;;1.57;;
36253;SDS011;22291;52.250;21.228;2023-12-22T11:40:25;8.60;;;2.00;;
36253;SDS011;22291;52.250;21.228;2023-12-22T11:42:52;7.78;;;1.82;;
36253;SDS011;22291;52.250;21.228;2023-12-22T11:45:21;8.45;;;1.85;;
36253;SDS011;22291;52.250;21.228;2023-12-22T11:50:29;7.92;;;2.25;;
36253;SDS011;22291;52.250;21.228;2023-12-22T11:53:16;8.25;;;1.80;;
36253;SDS011;22291;52.250;21.228;2023-12-22T11:55:57;2.33;;;1.30;;
36253;SDS011;22291;52.250;21.228;2023-12-22T11:58:42;9.38;;;1.85;;
36253;SDS011;22291;52.250;21.228;2023-12-22T12:01:14;8.60;;;1.77;;
36253;SDS011;22291;52.250;21.228;2023-12-22T12:04:03;4.28;;;1.70;;
36253;SDS011;22291;52.250;21.228;2023-12-22T12:06:32;5.75;;;1.90;;
36253;SDS011;22291;52.250;21.228;2023-12-22T12:09:01;11.05;;;2.20;;
36253;SDS011;22291;52.250;21.228;2023-12-22T12:14:37;7.53;;;2.55;;
36253;SDS011;22291;52.250;21.228;2023-12-22T12:17:08;8.70;;;2.52;;
36253;SDS011;22291;52.250;21.228;2023-12-22T12:19:40;5.37;;;2.35;;
36253;SDS011;22291;52.250;21.228;2023-12-22T12:22:11;8.15;;;2.62;;
36253;SDS011;22291;52.250;21.228;2023-12-22T12:24:42;6.65;;;2.25;;
36253;SDS011;22291;52.250;21.228;2023-12-22T12:27:09;4.58;;;2.33;;
36253;SDS011;22291;52.250;21.228;2023-12-22T12:29:37;8.43;;;2.55;;
36253;SDS011;22291;52.250;21.228;2023-12-22T12:32:05;6.62;;;2.77;;
36253;SDS011;22291;52.250;21.228;2023-12-22T12:34:35;4.62;;;2.15;;
36253;SDS011;22291;52.250;21.228;2023-12-22T12:37:03;9.70;;;2.57;;
36253;SDS011;22291;52.250;21.228;2023-12-22T12:39:33;11.45;;;2.87;;
36253;SDS011;22291;52.250;21.228;2023-12-22T12:42:01;5.28;;;2.50;;
36253;SDS011;22291;52.250;21.228;2023-12-22T12:44:32;8.55;;;2.25;;
36253;SDS011;22291;52.250;21.228;2023-12-22T12:47:12;4.92;;;2.45;;
36253;SDS011;22291;52.250;21.228;2023-12-22T12:52:14;7.22;;;2.33;;
36253;SDS011;22291;52.250;21.228;2023-12-22T12:54:41;8.60;;;2.40;;
36253;SDS011;22291;52.250;21.228;2023-12-22T12:57:15;9.40;;;2.83;;
36253;SDS011;22291;52.250;21.228;2023-12-22T12:59:47;6.67;;;2.62;;
36253;SDS011;22291;52.250;21.228;2023-12-22T13:02:16;6.87;;;2.72;;
36253;SDS011;22291;52.250;21.228;2023-12-22T13:04:47;7.28;;;3.00;;
36253;SDS011;22291;52.250;21.228;2023-12-22T13:07:25;7.33;;;2.77;;
36253;SDS011;22291;52.250;21.228;2023-12-22T13:12:24;7.90;;;3.15;;
36253;SDS011;22291;52.250;21.228;2023-12-22T13:14:54;8.00;;;3.47;;
36253;SDS011;22291;52.250;21.228;2023-12-22T13:17:22;7.60;;;3.12;;
36253;SDS011;22291;52.250;21.228;2023-12-22T13:19:49;5.17;;;2.80;;
36253;SDS011;22291;52.250;21.228;2023-12-22T13:22:18;5.83;;;2.83;;
36253;SDS011;22291;52.250;21.228;2023-12-22T13:24:56;6.08;;;2.60;;
36253;SDS011;22291;52.250;21.228;2023-12-22T13:27:26;7.20;;;2.85;;
36253;SDS011;22291;52.250;21.228;2023-12-22T13:29:55;9.90;;;3.40;;
36253;SDS011;22291;52.250;21.228;2023-12-22T13:32:22;6.97;;;3.22;;
36253;SDS011;22291;52.250;21.228;2023-12-22T13:37:19;9.00;;;3.37;;
36253;SDS011;22291;52.250;21.228;2023-12-22T13:39:50;6.03;;;3.50;;
36253;SDS011;22291;52.250;21.228;2023-12-22T13:42:19;8.73;;;3.35;;
36253;SDS011;22291;52.250;21.228;2023-12-22T13:44:49;8.50;;;3.17;;
36253;SDS011;22291;52.250;21.228;2023-12-22T13:47:21;4.92;;;2.83;;
36253;SDS011;22291;52.250;21.228;2023-12-22T13:49:50;8.83;;;3.27;;
36253;SDS011;22291;52.250;21.228;2023-12-22T13:54:54;7.97;;;3.30;;
36253;SDS011;22291;52.250;21.228;2023-12-22T13:57:23;9.03;;;3.47;;
36253;SDS011;22291;52.250;21.228;2023-12-22T13:59:50;8.65;;;3.25;;
36253;SDS011;22291;52.250;21.228;2023-12-22T14:02:21;6.40;;;3.22;;
36253;SDS011;22291;52.250;21.228;2023-12-22T14:04:50;8.80;;;3.47;;
36253;SDS011;22291;52.250;21.228;2023-12-22T14:07:19;7.42;;;4.20;;
36253;SDS011;22291;52.250;21.228;2023-12-22T14:09:46;8.80;;;3.67;;
36253;SDS011;22291;52.250;21.228;2023-12-22T14:12:15;9.30;;;3.60;;
36253;SDS011;22291;52.250;21.228;2023-12-22T14:14:43;10.08;;;4.55;;
36253;SDS011;22291;52.250;21.228;2023-12-22T14:17:12;9.58;;;3.95;;
36253;SDS011;22291;52.250;21.228;2023-12-22T14:19:39;5.95;;;3.30;;
36253;SDS011;22291;52.250;21.228;2023-12-22T14:22:07;10.38;;;3.80;;
36253;SDS011;22291;52.250;21.228;2023-12-22T14:24:35;10.95;;;3.77;;
36253;SDS011;22291;52.250;21.228;2023-12-22T14:27:04;9.95;;;3.58;;
36253;SDS011;22291;52.250;21.228;2023-12-22T14:29:31;7.87;;;3.98;;
36253;SDS011;22291;52.250;21.228;2023-12-22T14:32:00;9.63;;;3.90;;
36253;SDS011;22291;52.250;21.228;2023-12-22T14:34:28;9.85;;;4.17;;
36253;SDS011;22291;52.250;21.228;2023-12-22T14:36:57;8.15;;;4.10;;
36253;SDS011;22291;52.250;21.228;2023-12-22T14:39:26;11.68;;;4.50;;
36253;SDS011;22291;52.250;21.228;2023-12-22T14:41:53;15.38;;;4.72;;
36253;SDS011;22291;52.250;21.228;2023-12-22T14:44:23;12.95;;;4.53;;
36253;SDS011;22291;52.250;21.228;2023-12-22T14:46:50;10.63;;;4.40;;
36253;SDS011;22291;52.250;21.228;2023-12-22T14:49:18;6.65;;;4.12;;
36253;SDS011;22291;52.250;21.228;2023-12-22T14:51:48;11.95;;;3.92;;
36253;SDS011;22291;52.250;21.228;2023-12-22T14:54:20;9.00;;;3.98;;
36253;SDS011;22291;52.250;21.228;2023-12-22T14:56:49;12.18;;;4.42;;
36253;SDS011;22291;52.250;21.228;2023-12-22T14:59:19;10.13;;;4.45;;
36253;SDS011;22291;52.250;21.228;2023-12-22T15:01:48;9.30;;;4.20;;
36253;SDS011;22291;52.250;21.228;2023-12-22T15:04:15;9.15;;;4.40;;
36253;SDS011;22291;52.250;21.228;2023-12-22T15:06:45;9.63;;;4.60;;
36253;SDS011;22291;52.250;21.228;2023-12-22T15:09:13;13.25;;;5.20;;
36253;SDS011;22291;52.250;21.228;2023-12-22T15:11:45;12.00;;;4.97;;